sensor_id;sensor_type;location;lat;lon;timestamp;temperature;humidity
45115;DHT22;30877;43.706;10.780;2022-12-31T00:01:24;14.30;96.70
45115;DHT22;30877;43.706;10.780;2022-12-31T00:03:53;14.30;96.70
45115;DHT22;30877;43.706;10.780;2022-12-31T00:06:26;14.30;96.70
45115;DHT22;30877;43.706;10.780;2022-12-31T00:08:55;14.30;96.70
45115;DHT22;30877;43.706;10.780;2022-12-31T00:11:25;14.30;96.70
45115;DHT22;30877;43.706;10.780;2022-12-31T00:13:53;14.30;96.70
45115;DHT22;30877;43.706;10.780;2022-12-31T00:16:23;14.30;96.70
45115;DHT22;30877;43.706;10.780;2022-12-31T00:18:53;14.30;96.70
45115;DHT22;30877;43.706;10.780;2022-12-31T00:21:22;14.30;96.70
45115;DHT22;30877;43.706;10.780;2022-12-31T00:23:51;14.30;96.70
45115;DHT22;30877;43.706;10.780;2022-12-31T00:26:20;14.20;96.70
45115;DHT22;30877;43.706;10.780;2022-12-31T00:28:48;14.20;96.70
45115;DHT22;30877;43.706;10.780;2022-12-31T00:31:17;14.30;96.70
45115;DHT22;30877;43.706;10.780;2022-12-31T00:33:45;14.30;96.70
45115;DHT22;30877;43.706;10.780;2022-12-31T00:36:14;14.30;96.70
45115;DHT22;30877;43.706;10.780;2022-12-31T00:38:45;14.30;96.70
45115;DHT22;30877;43.706;10.780;2022-12-31T00:41:14;14.20;96.70
45115;DHT22;30877;43.706;10.780;2022-12-31T00:43:42;14.30;96.70
45115;DHT22;30877;43.706;10.780;2022-12-31T00:46:11;14.30;96.70
45115;DHT22;30877;43.706;10.780;2022-12-31T00:48:39;14.20;96.70
45115;DHT22;30877;43.706;10.780;2022-12-31T00:51:09;14.30;96.70
45115;DHT22;30877;43.706;10.780;2022-12-31T00:53:38;14.20;96.70
45115;DHT22;30877;43.706;10.780;2022-12-31T00:56:10;14.20;96.70
45115;DHT22;30877;43.706;10.780;2022-12-31T00:58:38;14.20;96.70
45115;DHT22;30877;43.706;10.780;2022-12-31T01:01:09;14.20;96.70
45115;DHT22;30877;43.706;10.780;2022-12-31T01:03:37;14.20;96.70
45115;DHT22;30877;43.706;10.780;2022-12-31T01:06:06;14.20;96.70
45115;DHT22;30877;43.706;10.780;2022-12-31T01:08:34;14.20;96.70
45115;DHT22;30877;43.706;10.780;2022-12-31T01:11:02;14.20;96.70
45115;DHT22;30877;43.706;10.780;2022-12-31T01:13:48;14.20;96.70
45115;DHT22;30877;43.706;10.780;2022-12-31T01:16:19;14.20;96.70
45115;DHT22;30877;43.706;10.780;2022-12-31T01:18:48;14.20;96.70
45115;DHT22;30877;43.706;10.780;2022-12-31T01:21:17;14.20;96.70
45115;DHT22;30877;43.706;10.780;2022-12-31T01:23:45;14.20;96.70
45115;DHT22;30877;43.706;10.780;2022-12-31T01:26:15;14.20;96.70
45115;DHT22;30877;43.706;10.780;2022-12-31T01:28:43;14.20;96.70
45115;DHT22;30877;43.706;10.780;2022-12-31T01:31:14;14.20;96.70
45115;DHT22;30877;43.706;10.780;2022-12-31T01:33:42;14.20;96.70
45115;DHT22;30877;43.706;10.780;2022-12-31T01:36:12;14.20;96.70
45115;DHT22;30877;43.706;10.780;2022-12-31T01:38:40;14.20;96.70
45115;DHT22;30877;43.706;10.780;2022-12-31T01:41:11;14.20;96.70
45115;DHT22;30877;43.706;10.780;2022-12-31T01:43:45;14.20;96.70
45115;DHT22;30877;43.706;10.780;2022-12-31T01:46:19;14.20;96.70
45115;DHT22;30877;43.706;10.780;2022-12-31T01:48:51;14.30;96.70
45115;DHT22;30877;43.706;10.780;2022-12-31T01:51:21;14.20;96.70
45115;DHT22;30877;43.706;10.780;2022-12-31T01:53:50;14.20;96.70
45115;DHT22;30877;43.706;10.780;2022-12-31T01:56:19;14.20;96.70
45115;DHT22;30877;43.706;10.780;2022-12-31T01:58:50;14.30;96.70
45115;DHT22;30877;43.706;10.780;2022-12-31T02:01:25;14.20;96.70
45115;DHT22;30877;43.706;10.780;2022-12-31T02:03:54;14.30;96.70
45115;DHT22;30877;43.706;10.780;2022-12-31T02:06:27;14.20;96.70
45115;DHT22;30877;43.706;10.780;2022-12-31T02:08:57;14.20;96.70
45115;DHT22;30877;43.706;10.780;2022-12-31T02:11:27;14.20;96.70
45115;DHT22;30877;43.706;10.780;2022-12-31T02:13:57;14.20;96.70
45115;DHT22;30877;43.706;10.780;2022-12-31T02:16:32;14.20;96.70
45115;DHT22;30877;43.706;10.780;2022-12-31T02:19:12;14.20;96.70
45115;DHT22;30877;43.706;10.780;2022-12-31T02:21:55;14.20;96.70
45115;DHT22;30877;43.706;10.780;2022-12-31T02:24:51;14.20;96.70
45115;DHT22;30877;43.706;10.780;2022-12-31T02:27:49;14.20;96.70
45115;DHT22;30877;43.706;10.780;2022-12-31T02:30:20;14.10;96.70
45115;DHT22;30877;43.706;10.780;2022-12-31T02:32:56;14.10;96.70
45115;DHT22;30877;43.706;10.780;2022-12-31T02:35:31;14.10;96.70
45115;DHT22;30877;43.706;10.780;2022-12-31T02:38:03;14.10;96.70
45115;DHT22;30877;43.706;10.780;2022-12-31T02:40:34;14.10;96.70
45115;DHT22;30877;43.706;10.780;2022-12-31T02:43:03;14.10;96.70
45115;DHT22;30877;43.706;10.780;2022-12-31T02:45:36;14.10;96.70
45115;DHT22;30877;43.706;10.780;2022-12-31T02:48:22;14.10;96.70
45115;DHT22;30877;43.706;10.780;2022-12-31T02:50:59;14.10;96.70
45115;DHT22;30877;43.706;10.780;2022-12-31T02:54:03;14.10;96.70
45115;DHT22;30877;43.706;10.780;2022-12-31T02:56:37;14.10;96.70
45115;DHT22;30877;43.706;10.780;2022-12-31T02:59:10;14.10;96.70
45115;DHT22;30877;43.706;10.780;2022-12-31T03:02:03;14.10;96.70
45115;DHT22;30877;43.706;10.780;2022-12-31T03:04:46;14.10;96.70
45115;DHT22;30877;43.706;10.780;2022-12-31T03:07:19;14.00;96.70
45115;DHT22;30877;43.706;10.780;2022-12-31T03:09:48;14.00;96.70
45115;DHT22;30877;43.706;10.780;2022-12-31T03:12:17;14.10;96.70
45115;DHT22;30877;43.706;10.780;2022-12-31T03:15:07;14.00;96.70
45115;DHT22;30877;43.706;10.780;2022-12-31T03:17:55;14.00;96.70
45115;DHT22;30877;43.706;10.780;2022-12-31T03:20:26;14.00;96.70
45115;DHT22;30877;43.706;10.780;2022-12-31T03:23:18;14.00;96.70
45115;DHT22;30877;43.706;10.780;2022-12-31T03:25:47;14.00;96.70
45115;DHT22;30877;43.706;10.780;2022-12-31T03:28:17;14.00;96.70
45115;DHT22;30877;43.706;10.780;2022-12-31T03:30:47;14.00;96.70
45115;DHT22;30877;43.706;10.780;2022-12-31T03:33:18;14.00;96.70
45115;DHT22;30877;43.706;10.780;2022-12-31T03:35:46;14.00;96.70
45115;DHT22;30877;43.706;10.780;2022-12-31T03:38:15;14.00;96.70
45115;DHT22;30877;43.706;10.780;2022-12-31T03:40:45;14.00;96.70
45115;DHT22;30877;43.706;10.780;2022-12-31T03:43:13;14.00;96.70
45115;DHT22;30877;43.706;10.780;2022-12-31T03:45:41;14.00;96.70
45115;DHT22;30877;43.706;10.780;2022-12-31T03:48:10;14.10;96.70
45115;DHT22;30877;43.706;10.780;2022-12-31T03:50:39;14.10;96.70
45115;DHT22;30877;43.706;10.780;2022-12-31T03:53:07;14.10;96.70
45115;DHT22;30877;43.706;10.780;2022-12-31T03:55:36;14.10;96.70
45115;DHT22;30877;43.706;10.780;2022-12-31T03:58:04;14.10;96.70
45115;DHT22;30877;43.706;10.780;2022-12-31T04:00:32;14.10;96.70
45115;DHT22;30877;43.706;10.780;2022-12-31T04:03:00;14.10;96.70
45115;DHT22;30877;43.706;10.780;2022-12-31T04:05:28;14.10;96.70
45115;DHT22;30877;43.706;10.780;2022-12-31T04:07:58;14.10;96.70
45115;DHT22;30877;43.706;10.780;2022-12-31T04:10:26;14.10;96.70
45115;DHT22;30877;43.706;10.780;2022-12-31T04:12:54;14.10;96.70
45115;DHT22;30877;43.706;10.780;2022-12-31T04:15:22;14.10;96.70
45115;DHT22;30877;43.706;10.780;2022-12-31T04:17:50;14.00;96.70
45115;DHT22;30877;43.706;10.780;2022-12-31T04:20:19;14.10;96.70
45115;DHT22;30877;43.706;10.780;2022-12-31T04:22:48;14.00;96.70
45115;DHT22;30877;43.706;10.780;2022-12-31T04:25:18;14.00;96.70
45115;DHT22;30877;43.706;10.780;2022-12-31T04:27:47;14.00;96.70
45115;DHT22;30877;43.706;10.780;2022-12-31T04:30:15;14.00;96.70
45115;DHT22;30877;43.706;10.780;2022-12-31T04:32:43;14.00;96.70
45115;DHT22;30877;43.706;10.780;2022-12-31T04:35:11;14.00;96.70
45115;DHT22;30877;43.706;10.780;2022-12-31T04:37:39;14.00;96.70
45115;DHT22;30877;43.706;10.780;2022-12-31T04:40:08;13.90;96.70
45115;DHT22;30877;43.706;10.780;2022-12-31T04:42:38;13.90;96.70
45115;DHT22;30877;43.706;10.780;2022-12-31T04:45:07;13.90;96.70
45115;DHT22;30877;43.706;10.780;2022-12-31T04:47:35;14.00;96.70
45115;DHT22;30877;43.706;10.780;2022-12-31T04:50:04;14.00;96.70
45115;DHT22;30877;43.706;10.780;2022-12-31T04:52:32;14.00;96.70
45115;DHT22;30877;43.706;10.780;2022-12-31T04:55:09;13.90;96.70
45115;DHT22;30877;43.706;10.780;2022-12-31T04:57:40;13.90;96.70
45115;DHT22;30877;43.706;10.780;2022-12-31T05:00:09;14.00;96.70
45115;DHT22;30877;43.706;10.780;2022-12-31T05:02:37;14.00;96.70
45115;DHT22;30877;43.706;10.780;2022-12-31T05:05:06;14.00;96.70
45115;DHT22;30877;43.706;10.780;2022-12-31T05:07:34;14.00;96.70
45115;DHT22;30877;43.706;10.780;2022-12-31T05:10:03;14.00;96.70
45115;DHT22;30877;43.706;10.780;2022-12-31T05:12:31;14.00;96.70
45115;DHT22;30877;43.706;10.780;2022-12-31T05:15:01;14.00;96.70
45115;DHT22;30877;43.706;10.780;2022-12-31T05:17:29;14.00;96.70
45115;DHT22;30877;43.706;10.780;2022-12-31T05:19:57;14.00;96.70
45115;DHT22;30877;43.706;10.780;2022-12-31T05:22:25;13.90;96.70
45115;DHT22;30877;43.706;10.780;2022-12-31T05:24:56;13.90;96.70
45115;DHT22;30877;43.706;10.780;2022-12-31T05:27:25;13.90;96.70
45115;DHT22;30877;43.706;10.780;2022-12-31T05:29:53;13.90;96.70
45115;DHT22;30877;43.706;10.780;2022-12-31T05:32:22;14.00;96.70
45115;DHT22;30877;43.706;10.780;2022-12-31T05:34:50;13.90;96.70
45115;DHT22;30877;43.706;10.780;2022-12-31T05:37:20;13.90;96.70
45115;DHT22;30877;43.706;10.780;2022-12-31T05:39:48;13.90;96.70
45115;DHT22;30877;43.706;10.780;2022-12-31T05:42:16;13.90;96.70
45115;DHT22;30877;43.706;10.780;2022-12-31T05:44:44;13.90;96.70
45115;DHT22;30877;43.706;10.780;2022-12-31T05:47:12;13.90;96.70
45115;DHT22;30877;43.706;10.780;2022-12-31T05:49:42;13.90;96.70
45115;DHT22;30877;43.706;10.780;2022-12-31T05:52:11;13.90;96.70
45115;DHT22;30877;43.706;10.780;2022-12-31T05:54:39;13.90;96.70
45115;DHT22;30877;43.706;10.780;2022-12-31T05:57:07;13.90;96.70
45115;DHT22;30877;43.706;10.780;2022-12-31T05:59:35;13.90;96.70
45115;DHT22;30877;43.706;10.780;2022-12-31T06:02:03;13.90;96.70
45115;DHT22;30877;43.706;10.780;2022-12-31T06:04:33;13.90;96.70
45115;DHT22;30877;43.706;10.780;2022-12-31T06:07:03;13.90;96.70
45115;DHT22;30877;43.706;10.780;2022-12-31T06:09:31;13.90;96.70
45115;DHT22;30877;43.706;10.780;2022-12-31T06:11:59;13.90;96.70
45115;DHT22;30877;43.706;10.780;2022-12-31T06:14:27;13.90;96.70
45115;DHT22;30877;43.706;10.780;2022-12-31T06:16:55;13.90;96.70
45115;DHT22;30877;43.706;10.780;2022-12-31T06:19:23;13.90;96.70
45115;DHT22;30877;43.706;10.780;2022-12-31T06:21:51;13.90;96.70
45115;DHT22;30877;43.706;10.780;2022-12-31T06:24:20;13.90;96.70
45115;DHT22;30877;43.706;10.780;2022-12-31T06:26:48;13.90;96.70
45115;DHT22;30877;43.706;10.780;2022-12-31T06:29:16;13.90;96.70
45115;DHT22;30877;43.706;10.780;2022-12-31T06:31:46;13.90;96.70
45115;DHT22;30877;43.706;10.780;2022-12-31T06:34:14;13.90;96.70
45115;DHT22;30877;43.706;10.780;2022-12-31T06:36:42;13.90;96.70
45115;DHT22;30877;43.706;10.780;2022-12-31T06:39:10;13.90;96.70
45115;DHT22;30877;43.706;10.780;2022-12-31T06:41:39;13.90;96.70
45115;DHT22;30877;43.706;10.780;2022-12-31T06:44:07;13.90;96.70
45115;DHT22;30877;43.706;10.780;2022-12-31T06:46:35;13.90;96.70
45115;DHT22;30877;43.706;10.780;2022-12-31T06:49:03;13.90;96.70
45115;DHT22;30877;43.706;10.780;2022-12-31T06:51:31;13.90;96.70
45115;DHT22;30877;43.706;10.780;2022-12-31T06:53:59;13.90;96.70
45115;DHT22;30877;43.706;10.780;2022-12-31T06:56:27;13.90;96.70
45115;DHT22;30877;43.706;10.780;2022-12-31T06:59:03;13.90;96.70
45115;DHT22;30877;43.706;10.780;2022-12-31T07:01:42;13.90;96.70
45115;DHT22;30877;43.706;10.780;2022-12-31T07:04:48;13.90;96.70
45115;DHT22;30877;43.706;10.780;2022-12-31T07:07:27;13.90;96.70
45115;DHT22;30877;43.706;10.780;2022-12-31T07:10:04;13.90;96.70
45115;DHT22;30877;43.706;10.780;2022-12-31T07:12:36;14.00;96.70
45115;DHT22;30877;43.706;10.780;2022-12-31T07:15:11;14.00;96.70
45115;DHT22;30877;43.706;10.780;2022-12-31T07:17:46;14.00;96.70
45115;DHT22;30877;43.706;10.780;2022-12-31T07:20:17;14.00;96.70
45115;DHT22;30877;43.706;10.780;2022-12-31T07:22:46;14.00;96.70
45115;DHT22;30877;43.706;10.780;2022-12-31T07:25:15;14.00;96.70
45115;DHT22;30877;43.706;10.780;2022-12-31T07:28:07;14.00;96.70
45115;DHT22;30877;43.706;10.780;2022-12-31T07:30:43;14.00;96.70
45115;DHT22;30877;43.706;10.780;2022-12-31T07:33:30;14.00;96.70
45115;DHT22;30877;43.706;10.780;2022-12-31T07:36:12;14.10;96.70
45115;DHT22;30877;43.706;10.780;2022-12-31T07:38:52;14.10;96.70
45115;DHT22;30877;43.706;10.780;2022-12-31T07:41:33;14.10;96.70
45115;DHT22;30877;43.706;10.780;2022-12-31T07:44:08;14.10;96.70
45115;DHT22;30877;43.706;10.780;2022-12-31T07:46:47;14.10;96.70
45115;DHT22;30877;43.706;10.780;2022-12-31T07:49:20;14.10;96.70
45115;DHT22;30877;43.706;10.780;2022-12-31T07:51:51;14.20;96.70
45115;DHT22;30877;43.706;10.780;2022-12-31T07:54:19;14.20;96.70
45115;DHT22;30877;43.706;10.780;2022-12-31T07:56:49;14.20;96.70
45115;DHT22;30877;43.706;10.780;2022-12-31T07:59:30;14.20;96.70
45115;DHT22;30877;43.706;10.780;2022-12-31T08:02:06;14.20;96.70
45115;DHT22;30877;43.706;10.780;2022-12-31T08:04:45;14.20;96.70
45115;DHT22;30877;43.706;10.780;2022-12-31T08:07:20;14.30;96.70
45115;DHT22;30877;43.706;10.780;2022-12-31T08:09:58;14.30;96.70
45115;DHT22;30877;43.706;10.780;2022-12-31T08:12:33;14.30;96.70
45115;DHT22;30877;43.706;10.780;2022-12-31T08:15:02;14.40;96.70
45115;DHT22;30877;43.706;10.780;2022-12-31T08:17:32;14.40;96.70
45115;DHT22;30877;43.706;10.780;2022-12-31T08:20:01;14.40;96.70
45115;DHT22;30877;43.706;10.780;2022-12-31T08:22:41;14.40;96.70
45115;DHT22;30877;43.706;10.780;2022-12-31T08:25:17;14.40;96.70
45115;DHT22;30877;43.706;10.780;2022-12-31T08:27:57;14.50;96.70
45115;DHT22;30877;43.706;10.780;2022-12-31T08:30:31;14.50;96.70
45115;DHT22;30877;43.706;10.780;2022-12-31T08:33:11;14.50;96.70
45115;DHT22;30877;43.706;10.780;2022-12-31T08:35:51;14.50;96.70
45115;DHT22;30877;43.706;10.780;2022-12-31T08:38:29;14.50;96.70
45115;DHT22;30877;43.706;10.780;2022-12-31T08:41:04;14.50;96.70
45115;DHT22;30877;43.706;10.780;2022-12-31T08:43:44;14.50;96.70
45115;DHT22;30877;43.706;10.780;2022-12-31T08:46:20;14.50;96.70
45115;DHT22;30877;43.706;10.780;2022-12-31T08:48:51;14.50;96.70
45115;DHT22;30877;43.706;10.780;2022-12-31T08:51:22;14.50;96.70
45115;DHT22;30877;43.706;10.780;2022-12-31T08:53:51;14.50;96.70
45115;DHT22;30877;43.706;10.780;2022-12-31T08:56:26;14.50;96.70
45115;DHT22;30877;43.706;10.780;2022-12-31T08:59:04;14.50;96.70
45115;DHT22;30877;43.706;10.780;2022-12-31T09:01:42;14.50;96.70
45115;DHT22;30877;43.706;10.780;2022-12-31T09:04:23;14.50;96.70
45115;DHT22;30877;43.706;10.780;2022-12-31T09:06:57;14.60;96.70
45115;DHT22;30877;43.706;10.780;2022-12-31T09:09:35;14.60;96.70
45115;DHT22;30877;43.706;10.780;2022-12-31T09:12:09;14.70;96.70
45115;DHT22;30877;43.706;10.780;2022-12-31T09:14:49;14.70;96.70
45115;DHT22;30877;43.706;10.780;2022-12-31T09:17:33;14.70;96.70
45115;DHT22;30877;43.706;10.780;2022-12-31T09:20:11;14.70;96.70
45115;DHT22;30877;43.706;10.780;2022-12-31T09:22:40;14.80;96.70
45115;DHT22;30877;43.706;10.780;2022-12-31T09:25:12;14.80;96.70
45115;DHT22;30877;43.706;10.780;2022-12-31T09:27:47;14.80;96.70
45115;DHT22;30877;43.706;10.780;2022-12-31T09:30:18;14.90;96.70
45115;DHT22;30877;43.706;10.780;2022-12-31T09:32:50;14.90;96.70
45115;DHT22;30877;43.706;10.780;2022-12-31T09:35:34;14.90;96.70
45115;DHT22;30877;43.706;10.780;2022-12-31T09:38:08;14.90;96.70
45115;DHT22;30877;43.706;10.780;2022-12-31T09:41:03;15.00;96.70
45115;DHT22;30877;43.706;10.780;2022-12-31T09:47:22;15.10;96.70
45115;DHT22;30877;43.706;10.780;2022-12-31T09:50:17;15.20;96.70
45115;DHT22;30877;43.706;10.780;2022-12-31T09:53:03;15.20;96.70
45115;DHT22;30877;43.706;10.780;2022-12-31T09:55:36;15.20;96.70
45115;DHT22;30877;43.706;10.780;2022-12-31T09:58:17;15.20;96.70
45115;DHT22;30877;43.706;10.780;2022-12-31T10:00:55;15.30;96.70
45115;DHT22;30877;43.706;10.780;2022-12-31T10:03:43;15.30;96.70
45115;DHT22;30877;43.706;10.780;2022-12-31T10:06:25;15.40;96.70
45115;DHT22;30877;43.706;10.780;2022-12-31T10:12:22;15.60;96.70
45115;DHT22;30877;43.706;10.780;2022-12-31T10:15:15;15.70;96.70
45115;DHT22;30877;43.706;10.780;2022-12-31T10:17:53;15.70;96.70
45115;DHT22;30877;43.706;10.780;2022-12-31T10:20:38;15.70;96.70
45115;DHT22;30877;43.706;10.780;2022-12-31T10:23:26;15.80;96.70
45115;DHT22;30877;43.706;10.780;2022-12-31T10:26:22;16.00;96.70
45115;DHT22;30877;43.706;10.780;2022-12-31T10:29:05;16.20;96.70
45115;DHT22;30877;43.706;10.780;2022-12-31T10:31:42;16.30;96.70
45115;DHT22;30877;43.706;10.780;2022-12-31T10:34:16;16.30;96.70
45115;DHT22;30877;43.706;10.780;2022-12-31T10:36:53;16.40;96.70
45115;DHT22;30877;43.706;10.780;2022-12-31T10:39:37;16.50;96.70
45115;DHT22;30877;43.706;10.780;2022-12-31T10:45:43;16.70;96.70
45115;DHT22;30877;43.706;10.780;2022-12-31T10:48:49;17.00;96.70
45115;DHT22;30877;43.706;10.780;2022-12-31T10:51:46;17.20;96.70
45115;DHT22;30877;43.706;10.780;2022-12-31T11:00:36;17.20;96.70
45115;DHT22;30877;43.706;10.780;2022-12-31T11:10:06;17.10;96.70
45115;DHT22;30877;43.706;10.780;2022-12-31T11:13:04;17.20;96.70
45115;DHT22;30877;43.706;10.780;2022-12-31T11:15:50;17.10;96.70
45115;DHT22;30877;43.706;10.780;2022-12-31T11:18:29;17.20;96.70
45115;DHT22;30877;43.706;10.780;2022-12-31T11:21:11;17.20;96.70
45115;DHT22;30877;43.706;10.780;2022-12-31T11:23:50;17.20;96.70
45115;DHT22;30877;43.706;10.780;2022-12-31T11:26:30;17.20;96.70
45115;DHT22;30877;43.706;10.780;2022-12-31T11:29:10;17.20;96.70
45115;DHT22;30877;43.706;10.780;2022-12-31T11:32:04;17.10;96.70
45115;DHT22;30877;43.706;10.780;2022-12-31T11:35:07;17.10;96.70
45115;DHT22;30877;43.706;10.780;2022-12-31T11:37:44;17.20;96.70
45115;DHT22;30877;43.706;10.780;2022-12-31T11:40:39;17.20;96.70
45115;DHT22;30877;43.706;10.780;2022-12-31T11:43:25;17.30;96.70
45115;DHT22;30877;43.706;10.780;2022-12-31T11:49:02;17.40;96.70
45115;DHT22;30877;43.706;10.780;2022-12-31T11:51:59;17.40;96.70
45115;DHT22;30877;43.706;10.780;2022-12-31T11:54:57;17.50;96.70
45115;DHT22;30877;43.706;10.780;2022-12-31T11:57:33;17.40;96.70
45115;DHT22;30877;43.706;10.780;2022-12-31T12:00:05;17.40;96.70
45115;DHT22;30877;43.706;10.780;2022-12-31T12:02:43;17.40;96.70
45115;DHT22;30877;43.706;10.780;2022-12-31T12:05:14;17.40;96.70
45115;DHT22;30877;43.706;10.780;2022-12-31T12:07:45;17.40;96.70
45115;DHT22;30877;43.706;10.780;2022-12-31T12:10:21;17.40;96.70
45115;DHT22;30877;43.706;10.780;2022-12-31T12:12:58;17.40;96.70
45115;DHT22;30877;43.706;10.780;2022-12-31T12:15:28;17.40;96.70
45115;DHT22;30877;43.706;10.780;2022-12-31T12:18:07;17.40;96.70
45115;DHT22;30877;43.706;10.780;2022-12-31T12:20:37;17.40;96.70
45115;DHT22;30877;43.706;10.780;2022-12-31T12:23:16;17.40;96.70
45115;DHT22;30877;43.706;10.780;2022-12-31T12:25:49;17.40;96.70
45115;DHT22;30877;43.706;10.780;2022-12-31T12:28:20;17.40;96.70
45115;DHT22;30877;43.706;10.780;2022-12-31T12:30:57;17.40;96.70
45115;DHT22;30877;43.706;10.780;2022-12-31T12:33:27;17.50;96.70
45115;DHT22;30877;43.706;10.780;2022-12-31T12:36:07;17.50;96.70
45115;DHT22;30877;43.706;10.780;2022-12-31T12:38:37;17.60;96.70
45115;DHT22;30877;43.706;10.780;2022-12-31T12:41:10;17.60;96.70
45115;DHT22;30877;43.706;10.780;2022-12-31T12:43:39;17.70;96.70
45115;DHT22;30877;43.706;10.780;2022-12-31T12:46:29;17.70;96.70
45115;DHT22;30877;43.706;10.780;2022-12-31T12:48:58;17.80;96.70
45115;DHT22;30877;43.706;10.780;2022-12-31T12:51:36;17.80;96.70
45115;DHT22;30877;43.706;10.780;2022-12-31T12:54:14;17.90;96.70
45115;DHT22;30877;43.706;10.780;2022-12-31T12:56:54;17.90;96.70
45115;DHT22;30877;43.706;10.780;2022-12-31T13:05:31;18.20;96.70
45115;DHT22;30877;43.706;10.780;2022-12-31T13:08:15;18.40;96.70
45115;DHT22;30877;43.706;10.780;2022-12-31T13:11:04;18.40;96.70
45115;DHT22;30877;43.706;10.780;2022-12-31T13:13:41;18.50;96.70
45115;DHT22;30877;43.706;10.780;2022-12-31T13:16:17;18.50;96.70
45115;DHT22;30877;43.706;10.780;2022-12-31T13:18:56;18.40;96.70
45115;DHT22;30877;43.706;10.780;2022-12-31T13:21:35;18.40;96.70
45115;DHT22;30877;43.706;10.780;2022-12-31T13:24:14;18.50;96.70
45115;DHT22;30877;43.706;10.780;2022-12-31T13:26:52;18.50;96.70
45115;DHT22;30877;43.706;10.780;2022-12-31T13:29:25;18.50;96.70
45115;DHT22;30877;43.706;10.780;2022-12-31T13:31:57;18.40;96.70
45115;DHT22;30877;43.706;10.780;2022-12-31T13:34:30;18.40;96.70
45115;DHT22;30877;43.706;10.780;2022-12-31T13:37:04;18.30;96.70
45115;DHT22;30877;43.706;10.780;2022-12-31T13:39:36;18.20;96.70
45115;DHT22;30877;43.706;10.780;2022-12-31T13:42:10;18.10;96.70
45115;DHT22;30877;43.706;10.780;2022-12-31T13:44:46;18.00;96.70
45115;DHT22;30877;43.706;10.780;2022-12-31T13:47:20;18.00;96.70
45115;DHT22;30877;43.706;10.780;2022-12-31T13:49:55;17.90;96.70
45115;DHT22;30877;43.706;10.780;2022-12-31T13:52:31;17.80;96.70
45115;DHT22;30877;43.706;10.780;2022-12-31T13:55:09;17.80;96.70
45115;DHT22;30877;43.706;10.780;2022-12-31T13:57:44;17.70;96.70
45115;DHT22;30877;43.706;10.780;2022-12-31T14:00:19;17.70;96.70
45115;DHT22;30877;43.706;10.780;2022-12-31T14:02:57;17.70;96.70
45115;DHT22;30877;43.706;10.780;2022-12-31T14:05:31;17.70;96.70
45115;DHT22;30877;43.706;10.780;2022-12-31T14:08:02;17.70;96.70
45115;DHT22;30877;43.706;10.780;2022-12-31T14:10:50;17.70;96.70
45115;DHT22;30877;43.706;10.780;2022-12-31T14:13:51;17.70;96.70
45115;DHT22;30877;43.706;10.780;2022-12-31T14:16:29;17.70;96.70
45115;DHT22;30877;43.706;10.780;2022-12-31T14:19:02;17.60;96.70
45115;DHT22;30877;43.706;10.780;2022-12-31T14:21:36;17.60;96.70
45115;DHT22;30877;43.706;10.780;2022-12-31T14:24:11;17.60;96.70
45115;DHT22;30877;43.706;10.780;2022-12-31T14:26:42;17.60;96.70
45115;DHT22;30877;43.706;10.780;2022-12-31T14:29:23;17.50;96.70
45115;DHT22;30877;43.706;10.780;2022-12-31T14:32:17;17.50;96.70
45115;DHT22;30877;43.706;10.780;2022-12-31T14:34:55;17.50;96.70
45115;DHT22;30877;43.706;10.780;2022-12-31T14:37:31;17.50;96.70
45115;DHT22;30877;43.706;10.780;2022-12-31T14:40:11;17.50;96.70
45115;DHT22;30877;43.706;10.780;2022-12-31T14:42:48;17.50;96.70
45115;DHT22;30877;43.706;10.780;2022-12-31T14:45:27;17.50;96.70
45115;DHT22;30877;43.706;10.780;2022-12-31T14:48:02;17.40;96.70
45115;DHT22;30877;43.706;10.780;2022-12-31T14:50:33;17.40;96.70
45115;DHT22;30877;43.706;10.780;2022-12-31T14:53:07;17.30;96.70
45115;DHT22;30877;43.706;10.780;2022-12-31T14:55:37;17.30;96.70
45115;DHT22;30877;43.706;10.780;2022-12-31T14:58:21;17.30;96.70
45115;DHT22;30877;43.706;10.780;2022-12-31T15:00:57;17.30;96.70
45115;DHT22;30877;43.706;10.780;2022-12-31T15:03:33;17.30;96.70
45115;DHT22;30877;43.706;10.780;2022-12-31T15:06:23;17.30;96.70
45115;DHT22;30877;43.706;10.780;2022-12-31T15:09:03;17.30;96.70
45115;DHT22;30877;43.706;10.780;2022-12-31T15:15:10;17.20;96.70
45115;DHT22;30877;43.706;10.780;2022-12-31T15:17:51;17.10;96.70
45115;DHT22;30877;43.706;10.780;2022-12-31T15:20:40;17.00;96.70
45115;DHT22;30877;43.706;10.780;2022-12-31T15:23:19;17.00;96.70
45115;DHT22;30877;43.706;10.780;2022-12-31T15:25:49;17.00;96.70
45115;DHT22;30877;43.706;10.780;2022-12-31T15:28:32;16.90;96.70
45115;DHT22;30877;43.706;10.780;2022-12-31T15:31:04;16.90;96.70
45115;DHT22;30877;43.706;10.780;2022-12-31T15:33:40;16.80;96.70
45115;DHT22;30877;43.706;10.780;2022-12-31T15:36:20;16.80;96.70
45115;DHT22;30877;43.706;10.780;2022-12-31T15:38:49;16.80;96.70
45115;DHT22;30877;43.706;10.780;2022-12-31T15:41:26;16.70;96.70
45115;DHT22;30877;43.706;10.780;2022-12-31T15:43:56;16.70;96.70
45115;DHT22;30877;43.706;10.780;2022-12-31T15:46:27;16.70;96.70
45115;DHT22;30877;43.706;10.780;2022-12-31T15:49:01;16.60;96.70
45115;DHT22;30877;43.706;10.780;2022-12-31T15:51:42;16.60;96.70
45115;DHT22;30877;43.706;10.780;2022-12-31T15:54:21;16.60;96.70
45115;DHT22;30877;43.706;10.780;2022-12-31T15:56:50;16.50;96.70
45115;DHT22;30877;43.706;10.780;2022-12-31T15:59:21;16.50;96.70
45115;DHT22;30877;43.706;10.780;2022-12-31T16:01:49;16.50;96.70
45115;DHT22;30877;43.706;10.780;2022-12-31T16:04:20;16.50;96.70
45115;DHT22;30877;43.706;10.780;2022-12-31T16:06:49;16.50;96.70
45115;DHT22;30877;43.706;10.780;2022-12-31T16:09:23;16.50;96.70
45115;DHT22;30877;43.706;10.780;2022-12-31T16:11:52;16.40;96.70
45115;DHT22;30877;43.706;10.780;2022-12-31T16:14:23;16.40;96.70
45115;DHT22;30877;43.706;10.780;2022-12-31T16:16:54;16.40;96.70
45115;DHT22;30877;43.706;10.780;2022-12-31T16:19:35;16.40;96.70
45115;DHT22;30877;43.706;10.780;2022-12-31T16:22:15;16.30;96.70
45115;DHT22;30877;43.706;10.780;2022-12-31T16:24:43;16.30;96.70
45115;DHT22;30877;43.706;10.780;2022-12-31T16:27:31;16.30;96.70
45115;DHT22;30877;43.706;10.780;2022-12-31T16:30:02;16.20;96.70
45115;DHT22;30877;43.706;10.780;2022-12-31T16:32:33;16.20;96.70
45115;DHT22;30877;43.706;10.780;2022-12-31T16:35:20;16.20;96.70
45115;DHT22;30877;43.706;10.780;2022-12-31T16:38:00;16.20;96.70